This is the latest recevied weather packets stored in our database for station/object OSTR-WX. If no packets are shown the sender has not sent any weather packets the latest 10 day(s).
| Time | Temp. | Humidity | Pressure | Rain* | Wind** | Luminosity | Snow |
|---|---|---|---|---|---|---|---|
| 1777433865 | -1.67° C | 88% | 1027.3 hPa | - | - | - | - |
| 1777430999 | -2.22° C | 86% | 1027.4 hPa | - | - | - | - |
| 1777430035 | -2.22° C | 86% | 1027.5 hPa | - | - | - | - |
| 1777428122 | -2.22° C | 83% | 1027.4 hPa | - | - | - | - |
| 1777424301 | -1.67° C | 81% | 1026.9 hPa | - | - | - | - |
| 1777422380 | -1.67° C | 82% | 1027 hPa | - | - | - | - |
| 1777413773 | 1.11° C | 75% | 1026.8 hPa | - | - | - | - |
| 1777413768 | 1.11° C | 75% | 1026.8 hPa | - | - | - | - |
| 1777412810 | 1.11° C | 71% | 1026.8 hPa | - | - | - | - |
| 1777410896 | 2.22° C | 68% | 1026.6 hPa | - | - | - | - |
| 1777408026 | 3.33° C | 61% | 1026.3 hPa | - | - | - | - |
| 1777407070 | 3.89° C | 57% | 1026 hPa | - | - | - | - |
| 1777407067 | 3.89° C | 57% | 1026 hPa | - | - | - | - |
| 1777406116 | 4.44° C | 59% | 1026 hPa | - | - | - | - |
| 1777405159 | 5° C | 55% | 1025.8 hPa | - | - | - | - |
| 1777405153 | 5° C | 55% | 1025.8 hPa | - | - | - | - |
| 1777405153 | 5° C | 55% | 1025.8 hPa | - | - | - | - |
| 1777402282 | 5.56° C | 50% | 1025.3 hPa | - | - | - | - |
| 1777401325 | 6.11° C | 49% | 1025.2 hPa | - | - | - | - |
| 1777401325 | 6.11° C | 49% | 1025.2 hPa | - | - | - | - |
| 1777400375 | 7.22° C | 44% | 1024.8 hPa | - | - | - | - |
| 1777400368 | 7.22° C | 44% | 1024.8 hPa | - | - | - | - |
| 1777396540 | 15° C | 29% | 1023.2 hPa | - | - | - | - |
| 1777393669 | 17.78° C | 27% | 1022.7 hPa | - | - | - | - |
| 1777388884 | 17.78° C | 26% | 1022.8 hPa | - | - | - | - |
* Rain since midnight (hover to see other rain measurements)
** Current wind speed in m/s (hover to see current wind gust speed)